sensor_id;sensor_type;location;lat;lon;timestamp;pressure;altitude;pressure_sealevel;temperature;humidity
11856;BME280;5987;53.140;8.904;2024-03-23T00:55:29;101777.28;;;5.29;100.00
11856;BME280;5987;53.140;8.904;2024-03-23T00:58:31;101772.91;;;5.26;100.00
11856;BME280;5987;53.140;8.904;2024-03-23T01:01:33;101778.97;;;5.30;100.00
11856;BME280;5987;53.140;8.904;2024-03-23T01:04:34;101786.81;;;5.39;100.00
11856;BME280;5987;53.140;8.904;2024-03-23T01:07:37;101768.56;;;5.27;100.00
11856;BME280;5987;53.140;8.904;2024-03-23T01:10:39;101767.72;;;5.26;100.00
11856;BME280;5987;53.140;8.904;2024-03-23T01:13:41;101766.84;;;5.29;100.00
11856;BME280;5987;53.140;8.904;2024-03-23T01:16:43;101759.91;;;5.28;100.00
11856;BME280;5987;53.140;8.904;2024-03-23T01:19:44;101779.84;;;5.24;100.00
11856;BME280;5987;53.140;8.904;2024-03-23T01:22:47;101786.81;;;5.25;100.00
11856;BME280;5987;53.140;8.904;2024-03-23T01:25:56;101779.84;;;5.24;100.00
11856;BME280;5987;53.140;8.904;2024-03-23T01:28:57;101780.72;;;5.22;100.00
11856;BME280;5987;53.140;8.904;2024-03-23T01:31:59;101789.41;;;5.21;100.00
11856;BME280;5987;53.140;8.904;2024-03-23T01:35:02;101786.78;;;5.16;100.00
11856;BME280;5987;53.140;8.904;2024-03-23T01:38:03;101783.31;;;5.20;100.00
11856;BME280;5987;53.140;8.904;2024-03-23T01:41:06;101789.38;;;5.14;100.00
11856;BME280;5987;53.140;8.904;2024-03-23T01:44:07;101777.22;;;5.09;100.00
11856;BME280;5987;53.140;8.904;2024-03-23T01:47:10;101778.13;;;5.11;100.00
11856;BME280;5987;53.140;8.904;2024-03-23T01:50:11;101772.91;;;5.17;100.00
11856;BME280;5987;53.140;8.904;2024-03-23T01:53:14;101768.56;;;5.16;100.00
11856;BME280;5987;53.140;8.904;2024-03-23T01:56:18;101759.03;;;5.13;100.00
11856;BME280;5987;53.140;8.904;2024-03-23T01:59:20;101747.75;;;5.04;100.00
11856;BME280;5987;53.140;8.904;2024-03-23T02:02:23;101758.16;;;5.07;100.00
11856;BME280;5987;53.140;8.904;2024-03-23T02:05:24;101753.81;;;4.96;100.00
11856;BME280;5987;53.140;8.904;2024-03-23T02:08:26;101765.94;;;5.01;100.00
11856;BME280;5987;53.140;8.904;2024-03-23T02:11:28;101759.00;;;4.90;100.00
11856;BME280;5987;53.140;8.904;2024-03-23T02:14:30;101764.19;;;4.90;100.00
11856;BME280;5987;53.140;8.904;2024-03-23T02:17:34;101782.41;;;4.92;100.00
11856;BME280;5987;53.140;8.904;2024-03-23T02:20:37;101779.81;;;4.92;100.00
11856;BME280;5987;53.140;8.904;2024-03-23T02:23:40;101785.88;;;4.86;100.00
11856;BME280;5987;53.140;8.904;2024-03-23T02:26:42;101805.84;;;4.89;100.00
11856;BME280;5987;53.140;8.904;2024-03-23T02:29:44;101815.38;;;4.91;100.00
11856;BME280;5987;53.140;8.904;2024-03-23T02:32:46;101813.63;;;4.93;100.00
11856;BME280;5987;53.140;8.904;2024-03-23T02:35:49;101820.59;;;4.94;100.00
11856;BME280;5987;53.140;8.904;2024-03-23T02:38:51;101823.19;;;4.91;100.00
11856;BME280;5987;53.140;8.904;2024-03-23T02:41:52;101828.41;;;4.93;100.00
11856;BME280;5987;53.140;8.904;2024-03-23T02:44:55;101824.91;;;4.89;100.00
11856;BME280;5987;53.140;8.904;2024-03-23T02:47:56;101837.06;;;4.90;100.00
11856;BME280;5987;53.140;8.904;2024-03-23T02:50:58;101844.00;;;4.91;100.00
11856;BME280;5987;53.140;8.904;2024-03-23T02:54:00;101834.41;;;4.79;100.00
11856;BME280;5987;53.140;8.904;2024-03-23T02:57:02;101834.41;;;4.78;100.00
11856;BME280;5987;53.140;8.904;2024-03-23T03:00:06;101840.50;;;4.81;100.00
11856;BME280;5987;53.140;8.904;2024-03-23T03:03:08;101850.91;;;4.83;100.00
11856;BME280;5987;53.140;8.904;2024-03-23T03:06:10;101856.13;;;4.77;100.00
11856;BME280;5987;53.140;8.904;2024-03-23T03:09:11;101850.91;;;4.83;100.00
11856;BME280;5987;53.140;8.904;2024-03-23T03:12:14;101852.66;;;4.84;100.00
11856;BME280;5987;53.140;8.904;2024-03-23T03:15:25;101858.72;;;4.83;100.00
11856;BME280;5987;53.140;8.904;2024-03-23T03:18:26;101862.19;;;4.82;100.00
11856;BME280;5987;53.140;8.904;2024-03-23T03:21:29;101867.38;;;4.80;100.00
11856;BME280;5987;53.140;8.904;2024-03-23T03:24:31;101866.53;;;4.78;100.00
11856;BME280;5987;53.140;8.904;2024-03-23T03:27:33;101862.19;;;4.77;100.00
11856;BME280;5987;53.140;8.904;2024-03-23T03:30:35;101875.19;;;4.82;100.00
11856;BME280;5987;53.140;8.904;2024-03-23T03:33:36;101881.28;;;4.81;100.00
11856;BME280;5987;53.140;8.904;2024-03-23T03:36:39;101857.03;;;4.87;100.00
11856;BME280;5987;53.140;8.904;2024-03-23T03:39:41;101859.63;;;4.88;100.00
11856;BME280;5987;53.140;8.904;2024-03-23T03:42:42;101855.28;;;4.86;100.00
11856;BME280;5987;53.140;8.904;2024-03-23T03:45:53;101847.47;;;4.84;100.00
11856;BME280;5987;53.140;8.904;2024-03-23T03:48:54;101836.16;;;4.77;100.00
11856;BME280;5987;53.140;8.904;2024-03-23T03:51:57;101809.25;;;4.74;100.00
11856;BME280;5987;53.140;8.904;2024-03-23T03:55:03;101779.78;;;4.75;100.00
11856;BME280;5987;53.140;8.904;2024-03-23T03:58:06;101763.31;;;4.74;100.00
11856;BME280;5987;53.140;8.904;2024-03-23T04:01:08;101765.91;;;4.73;100.00
11856;BME280;5987;53.140;8.904;2024-03-23T04:04:10;101778.88;;;4.70;100.00
11856;BME280;5987;53.140;8.904;2024-03-23T04:07:12;101783.22;;;4.68;100.00
11856;BME280;5987;53.140;8.904;2024-03-23T04:10:15;101790.19;;;4.67;100.00
11856;BME280;5987;53.140;8.904;2024-03-23T04:13:16;101778.88;;;4.70;100.00
11856;BME280;5987;53.140;8.904;2024-03-23T04:16:35;101789.31;;;4.73;100.00
11856;BME280;5987;53.140;8.904;2024-03-23T04:19:37;101774.56;;;4.76;100.00
11856;BME280;5987;53.140;8.904;2024-03-23T04:22:40;101763.31;;;4.77;100.00
11856;BME280;5987;53.140;8.904;2024-03-23T04:25:43;101752.03;;;4.80;100.00
11856;BME280;5987;53.140;8.904;2024-03-23T04:28:45;101742.50;;;4.74;100.00
11856;BME280;5987;53.140;8.904;2024-03-23T04:31:46;101737.28;;;4.76;100.00
11856;BME280;5987;53.140;8.904;2024-03-23T04:34:49;101724.28;;;4.76;100.00
11856;BME280;5987;53.140;8.904;2024-03-23T04:37:51;101719.09;;;4.77;100.00
11856;BME280;5987;53.140;8.904;2024-03-23T04:40:59;101712.13;;;4.78;100.00
11856;BME280;5987;53.140;8.904;2024-03-23T04:44:01;101702.63;;;4.75;100.00
11856;BME280;5987;53.140;8.904;2024-03-23T04:47:05;101691.34;;;4.81;100.00
11856;BME280;5987;53.140;8.904;2024-03-23T04:50:08;101678.31;;;4.76;100.00
11856;BME280;5987;53.140;8.904;2024-03-23T04:53:11;101666.19;;;4.78;100.00
11856;BME280;5987;53.140;8.904;2024-03-23T04:56:15;101656.66;;;4.73;100.00
11856;BME280;5987;53.140;8.904;2024-03-23T04:59:17;101650.56;;;4.78;100.00
11856;BME280;5987;53.140;8.904;2024-03-23T05:02:19;101632.38;;;4.75;100.00
11856;BME280;5987;53.140;8.904;2024-03-23T05:05:21;101616.75;;;4.77;100.00
11856;BME280;5987;53.140;8.904;2024-03-23T05:08:22;101611.56;;;4.77;100.00
11856;BME280;5987;53.140;8.904;2024-03-23T05:11:25;101596.81;;;4.71;100.00
11856;BME280;5987;53.140;8.904;2024-03-23T05:14:26;101585.53;;;4.77;100.00
11856;BME280;5987;53.140;8.904;2024-03-23T05:17:29;101565.59;;;4.73;100.00
11856;BME280;5987;53.140;8.904;2024-03-23T05:20:30;101559.50;;;4.71;100.00
11856;BME280;5987;53.140;8.904;2024-03-23T05:23:33;101548.28;;;4.66;100.00
11856;BME280;5987;53.140;8.904;2024-03-23T05:26:35;101544.78;;;4.67;100.00
11856;BME280;5987;53.140;8.904;2024-03-23T05:29:37;101540.44;;;4.58;100.00
11856;BME280;5987;53.140;8.904;2024-03-23T05:32:39;101537.00;;;4.57;100.00
11856;BME280;5987;53.140;8.904;2024-03-23T05:35:42;101530.03;;;4.47;100.00
11856;BME280;5987;53.140;8.904;2024-03-23T05:38:44;101530.06;;;4.44;100.00
11856;BME280;5987;53.140;8.904;2024-03-23T05:41:46;101534.38;;;4.46;100.00
11856;BME280;5987;53.140;8.904;2024-03-23T05:44:48;101529.19;;;4.42;100.00
11856;BME280;5987;53.140;8.904;2024-03-23T05:47:51;101536.13;;;4.37;100.00
11856;BME280;5987;53.140;8.904;2024-03-23T05:50:53;101536.97;;;4.36;100.00
11856;BME280;5987;53.140;8.904;2024-03-23T05:53:55;101546.53;;;4.32;100.00
11856;BME280;5987;53.140;8.904;2024-03-23T05:56:57;101561.25;;;4.25;100.00
11856;BME280;5987;53.140;8.904;2024-03-23T05:59:58;101559.50;;;4.26;100.00
11856;BME280;5987;53.140;8.904;2024-03-23T06:03:01;101563.84;;;4.25;100.00
11856;BME280;5987;53.140;8.904;2024-03-23T06:06:03;101577.69;;;4.26;100.00
11856;BME280;5987;53.140;8.904;2024-03-23T06:09:05;101583.78;;;4.26;100.00
11856;BME280;5987;53.140;8.904;2024-03-23T06:12:08;101592.44;;;4.27;100.00
11856;BME280;5987;53.140;8.904;2024-03-23T06:15:09;101596.78;;;4.37;100.00
11856;BME280;5987;53.140;8.904;2024-03-23T06:18:12;101596.78;;;4.34;100.00
11856;BME280;5987;53.140;8.904;2024-03-23T06:21:14;101610.66;;;4.35;100.00
11856;BME280;5987;53.140;8.904;2024-03-23T06:24:16;101608.06;;;4.41;100.00
11856;BME280;5987;53.140;8.904;2024-03-23T06:27:18;101616.75;;;4.52;100.00
11856;BME280;5987;53.140;8.904;2024-03-23T06:30:21;101613.28;;;4.56;100.00
11856;BME280;5987;53.140;8.904;2024-03-23T06:33:22;101609.81;;;4.63;100.00
11856;BME280;5987;53.140;8.904;2024-03-23T06:36:25;101603.72;;;4.72;100.00
11856;BME280;5987;53.140;8.904;2024-03-23T06:39:26;101600.28;;;4.81;100.00
11856;BME280;5987;53.140;8.904;2024-03-23T06:42:29;101587.25;;;4.90;100.00
11856;BME280;5987;53.140;8.904;2024-03-23T06:45:30;101578.56;;;4.96;100.00
11856;BME280;5987;53.140;8.904;2024-03-23T06:48:32;101556.84;;;5.05;100.00
11856;BME280;5987;53.140;8.904;2024-03-23T06:51:34;101542.06;;;5.14;100.00
11856;BME280;5987;53.140;8.904;2024-03-23T06:54:36;101516.06;;;5.10;100.00
11856;BME280;5987;53.140;8.904;2024-03-23T06:57:37;101497.81;;;5.14;100.00
11856;BME280;5987;53.140;8.904;2024-03-23T07:00:39;101479.59;;;5.21;100.00
11856;BME280;5987;53.140;8.904;2024-03-23T07:03:41;101473.47;;;5.31;100.00
11856;BME280;5987;53.140;8.904;2024-03-23T07:06:45;101458.66;;;5.44;100.00
11856;BME280;5987;53.140;8.904;2024-03-23T07:09:46;101433.41;;;5.55;100.00
11856;BME280;5987;53.140;8.904;2024-03-23T07:12:49;101412.44;;;5.77;100.00
11856;BME280;5987;53.140;8.904;2024-03-23T07:15:54;101378.59;;;5.71;100.00
11856;BME280;5987;53.140;8.904;2024-03-23T07:18:57;101345.50;;;5.82;100.00
11856;BME280;5987;53.140;8.904;2024-03-23T07:21:58;101313.19;;;6.01;100.00
11856;BME280;5987;53.140;8.904;2024-03-23T07:25:01;101267.19;;;5.97;100.00
11856;BME280;5987;53.140;8.904;2024-03-23T07:28:04;101235.63;;;6.22;100.00
11856;BME280;5987;53.140;8.904;2024-03-23T07:31:08;101209.41;;;6.31;100.00
11856;BME280;5987;53.140;8.904;2024-03-23T07:34:10;101178.94;;;6.37;100.00
11856;BME280;5987;53.140;8.904;2024-03-23T07:37:13;101147.56;;;6.41;100.00
11856;BME280;5987;53.140;8.904;2024-03-23T07:40:15;101104.97;;;6.41;100.00
11856;BME280;5987;53.140;8.904;2024-03-23T07:43:17;101088.97;;;6.65;100.00
11856;BME280;5987;53.140;8.904;2024-03-23T07:46:18;101054.72;;;6.84;100.00
11856;BME280;5987;53.140;8.904;2024-03-23T07:49:21;101020.59;;;6.93;100.00
11856;BME280;5987;53.140;8.904;2024-03-23T07:52:22;100995.28;;;7.41;100.00
11856;BME280;5987;53.140;8.904;2024-03-23T07:55:24;100946.75;;;7.30;100.00
11856;BME280;5987;53.140;8.904;2024-03-23T07:58:27;100903.97;;;7.36;100.00
11856;BME280;5987;53.140;8.904;2024-03-23T08:01:29;100867.84;;;7.17;100.00
11856;BME280;5987;53.140;8.904;2024-03-23T08:04:31;100848.47;;;7.26;100.00
11856;BME280;5987;53.140;8.904;2024-03-23T08:07:33;100825.84;;;6.86;100.00
11856;BME280;5987;53.140;8.904;2024-03-23T08:10:37;100818.09;;;6.83;100.00
11856;BME280;5987;53.140;8.904;2024-03-23T08:13:40;100818.34;;;6.70;100.00
11856;BME280;5987;53.140;8.904;2024-03-23T08:16:43;100817.53;;;6.68;100.00
11856;BME280;5987;53.140;8.904;2024-03-23T08:19:49;100810.34;;;6.80;100.00
11856;BME280;5987;53.140;8.904;2024-03-23T08:22:50;100797.63;;;6.64;100.00
11856;BME280;5987;53.140;8.904;2024-03-23T08:25:58;100783.59;;;6.70;100.00
11856;BME280;5987;53.140;8.904;2024-03-23T08:29:00;100776.53;;;7.13;100.00
11856;BME280;5987;53.140;8.904;2024-03-23T08:32:02;100762.34;;;7.25;100.00
11856;BME280;5987;53.140;8.904;2024-03-23T08:35:05;100753.63;;;7.60;100.00
11856;BME280;5987;53.140;8.904;2024-03-23T08:38:07;100731.72;;;7.31;100.00
11856;BME280;5987;53.140;8.904;2024-03-23T08:41:11;100712.81;;;7.54;100.00
11856;BME280;5987;53.140;8.904;2024-03-23T08:44:12;100691.97;;;7.53;100.00
11856;BME280;5987;53.140;8.904;2024-03-23T08:47:15;100668.66;;;7.45;100.00
11856;BME280;5987;53.140;8.904;2024-03-23T08:50:17;100651.78;;;7.24;100.00
11856;BME280;5987;53.140;8.904;2024-03-23T08:53:19;100642.19;;;7.26;100.00
11856;BME280;5987;53.140;8.904;2024-03-23T08:56:20;100632.50;;;6.95;100.00
11856;BME280;5987;53.140;8.904;2024-03-23T08:59:23;100623.63;;;7.02;100.00
11856;BME280;5987;53.140;8.904;2024-03-23T09:02:25;100614.19;;;7.63;100.00
11856;BME280;5987;53.140;8.904;2024-03-23T09:05:28;100614.56;;;7.17;100.00
11856;BME280;5987;53.140;8.904;2024-03-23T09:08:29;100601.75;;;7.39;100.00
11856;BME280;5987;53.140;8.904;2024-03-23T09:11:32;100583.56;;;7.36;100.00
11856;BME280;5987;53.140;8.904;2024-03-23T09:14:34;100569.94;;;7.25;100.00
11856;BME280;5987;53.140;8.904;2024-03-23T09:17:35;100573.50;;;7.54;100.00
11856;BME280;5987;53.140;8.904;2024-03-23T09:20:38;100566.63;;;7.81;100.00
11856;BME280;5987;53.140;8.904;2024-03-23T09:23:39;100566.66;;;7.50;100.00
11856;BME280;5987;53.140;8.904;2024-03-23T09:26:41;100549.81;;;7.60;100.00
11856;BME280;5987;53.140;8.904;2024-03-23T09:29:43;100548.31;;;7.51;100.00
11856;BME280;5987;53.140;8.904;2024-03-23T09:32:46;100545.63;;;7.54;100.00
11856;BME280;5987;53.140;8.904;2024-03-23T09:35:47;100549.38;;;7.76;100.00
11856;BME280;5987;53.140;8.904;2024-03-23T09:38:50;100549.91;;;7.87;100.00
11856;BME280;5987;53.140;8.904;2024-03-23T09:41:57;100553.47;;;7.23;100.00
11856;BME280;5987;53.140;8.904;2024-03-23T09:45:00;100563.50;;;7.38;100.00
11856;BME280;5987;53.140;8.904;2024-03-23T09:48:02;100552.69;;;7.51;100.00
11856;BME280;5987;53.140;8.904;2024-03-23T09:51:05;100553.69;;;7.77;100.00
11856;BME280;5987;53.140;8.904;2024-03-23T09:54:09;100544.19;;;7.74;100.00
11856;BME280;5987;53.140;8.904;2024-03-23T09:57:10;100530.88;;;7.82;100.00
11856;BME280;5987;53.140;8.904;2024-03-23T10:00:13;100533.94;;;7.68;100.00
11856;BME280;5987;53.140;8.904;2024-03-23T10:03:14;100537.78;;;7.54;100.00
11856;BME280;5987;53.140;8.904;2024-03-23T10:06:22;100542.28;;;7.79;100.00
11856;BME280;5987;53.140;8.904;2024-03-23T10:09:26;100530.88;;;7.82;100.00
11856;BME280;5987;53.140;8.904;2024-03-23T10:12:28;100530.69;;;7.88;100.00
11856;BME280;5987;53.140;8.904;2024-03-23T10:15:29;100533.75;;;8.02;100.00
11856;BME280;5987;53.140;8.904;2024-03-23T10:18:38;100541.94;;;8.20;100.00
11856;BME280;5987;53.140;8.904;2024-03-23T10:21:52;100525.91;;;8.02;100.00
11856;BME280;5987;53.140;8.904;2024-03-23T10:25:12;100521.44;;;8.06;100.00
11856;BME280;5987;53.140;8.904;2024-03-23T10:28:16;100520.88;;;7.66;100.00
11856;BME280;5987;53.140;8.904;2024-03-23T10:31:17;100537.66;;;7.87;100.00
11856;BME280;5987;53.140;8.904;2024-03-23T10:34:26;100527.47;;;7.80;100.00
11856;BME280;5987;53.140;8.904;2024-03-23T10:37:28;100534.69;;;8.00;100.00
11856;BME280;5987;53.140;8.904;2024-03-23T10:40:30;100526.63;;;8.07;100.00
11856;BME280;5987;53.140;8.904;2024-03-23T10:43:33;100536.88;;;8.14;100.00
11856;BME280;5987;53.140;8.904;2024-03-23T10:46:35;100530.78;;;8.13;100.00
11856;BME280;5987;53.140;8.904;2024-03-23T10:49:38;100534.34;;;8.66;100.00
11856;BME280;5987;53.140;8.904;2024-03-23T10:52:46;100509.81;;;8.41;100.00
11856;BME280;5987;53.140;8.904;2024-03-23T10:55:49;100506.66;;;8.05;100.00
11856;BME280;5987;53.140;8.904;2024-03-23T10:58:52;100496.97;;;8.07;100.00
11856;BME280;5987;53.140;8.904;2024-03-23T11:02:01;100490.91;;;8.33;100.00
11856;BME280;5987;53.140;8.904;2024-03-23T11:08:37;100488.13;;;8.38;100.00
11856;BME280;5987;53.140;8.904;2024-03-23T11:11:39;100495.88;;;8.14;100.00
11856;BME280;5987;53.140;8.904;2024-03-23T11:14:41;100482.97;;;8.88;100.00
11856;BME280;5987;53.140;8.904;2024-03-23T11:18:06;100483.97;;;8.84;100.00
11856;BME280;5987;53.140;8.904;2024-03-23T11:21:10;100486.28;;;8.68;100.00
11856;BME280;5987;53.140;8.904;2024-03-23T11:24:14;100479.63;;;8.60;100.00
11856;BME280;5987;53.140;8.904;2024-03-23T11:27:16;100479.44;;;8.37;100.00
11856;BME280;5987;53.140;8.904;2024-03-23T11:30:23;100472.19;;;8.72;100.00
11856;BME280;5987;53.140;8.904;2024-03-23T11:33:26;100477.00;;;8.85;100.00
11856;BME280;5987;53.140;8.904;2024-03-23T11:36:27;100472.13;;;9.23;100.00
11856;BME280;5987;53.140;8.904;2024-03-23T11:39:29;100464.38;;;8.71;100.00
11856;BME280;5987;53.140;8.904;2024-03-23T11:42:31;100478.00;;;8.55;100.00
11856;BME280;5987;53.140;8.904;2024-03-23T11:45:48;100470.16;;;9.28;100.00
11856;BME280;5987;53.140;8.904;2024-03-23T11:48:51;100464.25;;;8.99;100.00
11856;BME280;5987;53.140;8.904;2024-03-23T11:51:55;100458.44;;;8.91;100.00
11856;BME280;5987;53.140;8.904;2024-03-23T11:55:05;100473.44;;;8.86;100.00
11856;BME280;5987;53.140;8.904;2024-03-23T11:58:10;100463.34;;;9.00;100.00
11856;BME280;5987;53.140;8.904;2024-03-23T12:01:12;100440.50;;;9.04;100.00
11856;BME280;5987;53.140;8.904;2024-03-23T12:04:28;100432.84;;;8.99;100.00
11856;BME280;5987;53.140;8.904;2024-03-23T12:07:29;100417.81;;;9.04;100.00
11856;BME280;5987;53.140;8.904;2024-03-23T12:10:32;100420.88;;;9.16;100.00
11856;BME280;5987;53.140;8.904;2024-03-23T12:13:33;100428.84;;;9.13;100.00
11856;BME280;5987;53.140;8.904;2024-03-23T12:16:36;100435.06;;;8.61;100.00
11856;BME280;5987;53.140;8.904;2024-03-23T12:19:38;100455.28;;;8.29;100.00
11856;BME280;5987;53.140;8.904;2024-03-23T12:22:44;100505.00;;;7.44;100.00
11856;BME280;5987;53.140;8.904;2024-03-23T12:25:49;100595.22;;;4.29;100.00
11856;BME280;5987;53.140;8.904;2024-03-23T12:28:51;100627.69;;;3.22;100.00
11856;BME280;5987;53.140;8.904;2024-03-23T12:31:55;100688.25;;;3.18;100.00
11856;BME280;5987;53.140;8.904;2024-03-23T12:34:58;100746.09;;;3.28;100.00
11856;BME280;5987;53.140;8.904;2024-03-23T12:38:00;100782.47;;;3.20;100.00
11856;BME280;5987;53.140;8.904;2024-03-23T12:41:02;100810.09;;;3.31;100.00
11856;BME280;5987;53.140;8.904;2024-03-23T12:44:06;100826.34;;;3.56;100.00
11856;BME280;5987;53.140;8.904;2024-03-23T12:47:09;100838.00;;;4.09;100.00
11856;BME280;5987;53.140;8.904;2024-03-23T12:50:12;100844.63;;;4.35;100.00
11856;BME280;5987;53.140;8.904;2024-03-23T12:53:14;100837.03;;;4.91;100.00
11856;BME280;5987;53.140;8.904;2024-03-23T12:56:17;100807.22;;;5.14;100.00
11856;BME280;5987;53.140;8.904;2024-03-23T12:59:19;100780.81;;;5.39;100.00
11856;BME280;5987;53.140;8.904;2024-03-23T13:02:22;100734.50;;;5.56;100.00
11856;BME280;5987;53.140;8.904;2024-03-23T13:05:24;100686.53;;;5.70;100.00
11856;BME280;5987;53.140;8.904;2024-03-23T13:08:27;100648.97;;;5.80;100.00
11856;BME280;5987;53.140;8.904;2024-03-23T13:11:29;100612.63;;;6.16;100.00
11856;BME280;5987;53.140;8.904;2024-03-23T13:14:31;100587.75;;;6.40;100.00
11856;BME280;5987;53.140;8.904;2024-03-23T13:17:34;100555.22;;;6.55;100.00
11856;BME280;5987;53.140;8.904;2024-03-23T13:20:41;100539.84;;;6.79;100.00
11856;BME280;5987;53.140;8.904;2024-03-23T13:23:42;100522.16;;;6.90;100.00
11856;BME280;5987;53.140;8.904;2024-03-23T13:26:53;100514.00;;;7.02;100.00
11856;BME280;5987;53.140;8.904;2024-03-23T13:29:54;100502.16;;;7.22;100.00
11856;BME280;5987;53.140;8.904;2024-03-23T13:32:59;100513.75;;;7.12;100.00
11856;BME280;5987;53.140;8.904;2024-03-23T13:36:00;100550.00;;;6.90;100.00
11856;BME280;5987;53.140;8.904;2024-03-23T13:39:03;100568.00;;;5.91;100.00
11856;BME280;5987;53.140;8.904;2024-03-23T13:42:11;100577.03;;;5.74;100.00
11856;BME280;5987;53.140;8.904;2024-03-23T13:45:14;100614.09;;;5.43;100.00
11856;BME280;5987;53.140;8.904;2024-03-23T13:48:17;100633.22;;;4.92;100.00
11856;BME280;5987;53.140;8.904;2024-03-23T13:51:24;100647.50;;;5.20;100.00
11856;BME280;5987;53.140;8.904;2024-03-23T13:54:28;100678.03;;;5.60;100.00
11856;BME280;5987;53.140;8.904;2024-03-23T13:57:56;100709.16;;;5.66;100.00
11856;BME280;5987;53.140;8.904;2024-03-23T14:01:02;100718.88;;;5.56;100.00
11856;BME280;5987;53.140;8.904;2024-03-23T14:04:05;100740.66;;;5.52;100.00
11856;BME280;5987;53.140;8.904;2024-03-23T14:07:06;100751.03;;;5.54;100.00
11856;BME280;5987;53.140;8.904;2024-03-23T14:10:10;100766.84;;;5.93;100.00
11856;BME280;5987;53.140;8.904;2024-03-23T14:13:14;100780.69;;;5.96;100.00
11856;BME280;5987;53.140;8.904;2024-03-23T14:16:16;100778.34;;;5.82;100.00
11856;BME280;5987;53.140;8.904;2024-03-23T14:19:18;100770.69;;;5.72;100.00
11856;BME280;5987;53.140;8.904;2024-03-23T14:22:20;100783.09;;;6.07;100.00
11856;BME280;5987;53.140;8.904;2024-03-23T14:25:27;100765.03;;;5.99;100.00
11856;BME280;5987;53.140;8.904;2024-03-23T14:28:30;100751.88;;;6.06;100.00
11856;BME280;5987;53.140;8.904;2024-03-23T14:31:32;100755.13;;;6.17;100.00
11856;BME280;5987;53.140;8.904;2024-03-23T14:34:34;100750.13;;;6.06;100.00
11856;BME280;5987;53.140;8.904;2024-03-23T14:37:40;100748.72;;;6.33;100.00
11856;BME280;5987;53.140;8.904;2024-03-23T14:40:43;100756.59;;;6.30;100.00
11856;BME280;5987;53.140;8.904;2024-03-23T14:43:45;100745.22;;;6.34;100.00
11856;BME280;5987;53.140;8.904;2024-03-23T14:46:49;100733.84;;;6.39;100.00
11856;BME280;5987;53.140;8.904;2024-03-23T14:49:56;100713.00;;;6.35;100.00
11856;BME280;5987;53.140;8.904;2024-03-23T14:52:59;100716.44;;;6.39;100.00
11856;BME280;5987;53.140;8.904;2024-03-23T14:56:03;100713.31;;;6.62;100.00
11856;BME280;5987;53.140;8.904;2024-03-23T14:59:04;100666.53;;;6.92;100.00
11856;BME280;5987;53.140;8.904;2024-03-23T15:02:08;100629.69;;;7.37;100.00
11856;BME280;5987;53.140;8.904;2024-03-23T15:05:16;100601.31;;;7.24;100.00
11856;BME280;5987;53.140;8.904;2024-03-23T15:08:18;100593.91;;;7.08;100.00
11856;BME280;5987;53.140;8.904;2024-03-23T15:11:20;100565.03;;;7.46;100.00
11856;BME280;5987;53.140;8.904;2024-03-23T15:14:24;100551.38;;;7.66;100.00
11856;BME280;5987;53.140;8.904;2024-03-23T15:17:25;100525.94;;;7.72;100.00
11856;BME280;5987;53.140;8.904;2024-03-23T15:20:28;100521.31;;;7.52;100.00
11856;BME280;5987;53.140;8.904;2024-03-23T15:23:30;100517.41;;;7.04;100.00
11856;BME280;5987;53.140;8.904;2024-03-23T15:26:32;100529.66;;;6.69;100.00
11856;BME280;5987;53.140;8.904;2024-03-23T15:29:33;100544.66;;;6.61;100.00
11856;BME280;5987;53.140;8.904;2024-03-23T15:32:37;100541.38;;;6.86;100.00
11856;BME280;5987;53.140;8.904;2024-03-23T15:35:39;100544.59;;;6.63;100.00
11856;BME280;5987;53.140;8.904;2024-03-23T15:38:41;100535.44;;;6.46;100.00
11856;BME280;5987;53.140;8.904;2024-03-23T15:41:47;100547.28;;;6.24;100.00
11856;BME280;5987;53.140;8.904;2024-03-23T15:44:49;100546.66;;;6.14;100.00
11856;BME280;5987;53.140;8.904;2024-03-23T15:47:50;100548.50;;;6.09;100.00
11856;BME280;5987;53.140;8.904;2024-03-23T15:50:55;100569.94;;;6.20;100.00
11856;BME280;5987;53.140;8.904;2024-03-23T15:53:56;100564.72;;;6.22;100.00
11856;BME280;5987;53.140;8.904;2024-03-23T15:56:59;100575.13;;;6.23;100.00
11856;BME280;5987;53.140;8.904;2024-03-23T16:00:04;100549.41;;;6.08;100.00
11856;BME280;5987;53.140;8.904;2024-03-23T16:03:07;100525.19;;;6.03;100.00
11856;BME280;5987;53.140;8.904;2024-03-23T16:06:08;100510.16;;;6.14;100.00
11856;BME280;5987;53.140;8.904;2024-03-23T16:09:11;100515.19;;;6.20;100.00
11856;BME280;5987;53.140;8.904;2024-03-23T16:12:12;100522.59;;;6.39;100.00
11856;BME280;5987;53.140;8.904;2024-03-23T16:15:14;100529.75;;;6.30;100.00
11856;BME280;5987;53.140;8.904;2024-03-23T16:18:16;100541.59;;;6.44;100.00
11856;BME280;5987;53.140;8.904;2024-03-23T16:21:18;100531.31;;;6.38;100.00
11856;BME280;5987;53.140;8.904;2024-03-23T16:24:21;100528.19;;;6.23;100.00
11856;BME280;5987;53.140;8.904;2024-03-23T16:27:23;100539.53;;;6.21;100.00
11856;BME280;5987;53.140;8.904;2024-03-23T16:30:24;100547.41;;;6.19;100.00
11856;BME280;5987;53.140;8.904;2024-03-23T16:33:29;100562.00;;;5.86;100.00
11856;BME280;5987;53.140;8.904;2024-03-23T16:36:32;100578.31;;;5.53;100.00
11856;BME280;5987;53.140;8.904;2024-03-23T16:39:34;100630.59;;;5.42;100.00
11856;BME280;5987;53.140;8.904;2024-03-23T16:42:37;100656.22;;;5.17;100.00
11856;BME280;5987;53.140;8.904;2024-03-23T16:45:39;100678.97;;;5.04;100.00
11856;BME280;5987;53.140;8.904;2024-03-23T16:48:44;100692.72;;;5.14;100.00
11856;BME280;5987;53.140;8.904;2024-03-23T16:51:46;100714.13;;;5.30;100.00
11856;BME280;5987;53.140;8.904;2024-03-23T16:54:48;100719.28;;;5.35;100.00
11856;BME280;5987;53.140;8.904;2024-03-23T16:57:50;100716.38;;;5.52;100.00
11856;BME280;5987;53.140;8.904;2024-03-23T17:00:51;100683.91;;;5.21;100.00
11856;BME280;5987;53.140;8.904;2024-03-23T17:03:57;100670.22;;;5.10;100.00
11856;BME280;5987;53.140;8.904;2024-03-23T17:06:58;100673.06;;;4.94;100.00